createdAt,value
2022-10-04T00:01:47.478Z,1.40
2022-10-04T00:04:20.108Z,2.13
2022-10-04T00:06:59.065Z,3.33
2022-10-04T00:09:37.702Z,8.88
2022-10-04T00:12:06.198Z,2.13
2022-10-04T00:14:38.969Z,5.38
2022-10-04T00:17:12.649Z,2.20
2022-10-04T00:19:41.964Z,3.95
2022-10-04T00:22:12.718Z,8.25
2022-10-04T00:25:08.548Z,5.88
2022-10-04T00:27:37.078Z,1.15
2022-10-04T00:30:03.857Z,4.65
2022-10-04T00:32:42.419Z,5.00
2022-10-04T00:35:27.302Z,4.22
2022-10-04T00:38:15.163Z,4.20
2022-10-04T00:41:14.878Z,1.60
2022-10-04T00:43:47.991Z,1.83
2022-10-04T00:46:23.233Z,1.88
2022-10-04T00:51:22.965Z,5.28
2022-10-04T00:54:01.897Z,6.20
2022-10-04T00:56:56.156Z,5.15
2022-10-04T00:59:38.295Z,1.65
2022-10-04T01:02:14.616Z,1.35
2022-10-04T01:04:44.425Z,2.08
2022-10-04T01:07:15.663Z,7.28
2022-10-04T01:09:57.171Z,2.15
2022-10-04T01:12:36.512Z,4.38
2022-10-04T01:15:09.390Z,4.88
2022-10-04T01:17:36.377Z,3.80
2022-10-04T01:20:32.349Z,4.07
2022-10-04T01:22:59.338Z,2.78
2022-10-04T01:25:48.122Z,2.47
2022-10-04T01:28:15.571Z,3.45
2022-10-04T01:30:43.615Z,5.25
2022-10-04T01:33:12.726Z,1.77
2022-10-04T01:35:40.129Z,6.10
2022-10-04T01:38:07.817Z,8.02
2022-10-04T01:40:39.963Z,2.42
2022-10-04T01:43:10.521Z,3.40
2022-10-04T01:45:50.346Z,3.17
2022-10-04T01:48:26.396Z,1.15
2022-10-04T01:50:53.247Z,11.93
2022-10-04T01:53:28.681Z,4.47
2022-10-04T01:56:05.323Z,2.65
2022-10-04T01:58:41.760Z,4.05
2022-10-04T02:01:26.823Z,6.32
2022-10-04T02:04:32.113Z,3.10
2022-10-04T02:07:01.890Z,8.90
2022-10-04T02:09:34.092Z,3.00
2022-10-04T02:12:01.799Z,6.05
2022-10-04T02:14:35.737Z,9.73
2022-10-04T02:17:10.766Z,5.10
2022-10-04T02:19:42.658Z,6.88
2022-10-04T02:22:11.310Z,5.88
2022-10-04T02:24:48.738Z,6.78
2022-10-04T02:27:16.428Z,3.17
2022-10-04T02:29:43.448Z,6.65
2022-10-04T02:32:31.999Z,8.50
2022-10-04T02:34:59.237Z,3.75
2022-10-04T02:37:28.789Z,5.90
2022-10-04T02:40:05.489Z,2.10
2022-10-04T02:42:41.485Z,7.43
2022-10-04T02:45:33.468Z,4.88
2022-10-04T02:48:27.698Z,6.10
2022-10-04T02:50:57.126Z,6.28
2022-10-04T02:53:45.235Z,1.88
2022-10-04T02:56:13.409Z,4.40
2022-10-04T02:58:41.929Z,5.32
2022-10-04T03:01:24.603Z,4.30
2022-10-04T03:03:52.507Z,3.88
2022-10-04T03:06:20.819Z,6.68
2022-10-04T03:08:47.605Z,6.75
2022-10-04T03:11:16.124Z,3.53
2022-10-04T03:13:47.592Z,5.85
2022-10-04T03:16:15.539Z,1.98
2022-10-04T03:18:44.401Z,4.30
2022-10-04T03:21:16.038Z,12.93
2022-10-04T03:23:43.704Z,4.00
2022-10-04T03:26:31.621Z,5.53
2022-10-04T03:28:59.641Z,7.97
2022-10-04T03:31:28.455Z,3.38
2022-10-04T03:33:57.438Z,1.75
2022-10-04T03:36:26.570Z,3.08
2022-10-04T03:38:56.424Z,3.03
2022-10-04T03:41:26.096Z,5.20
2022-10-04T03:43:55.634Z,5.75
2022-10-04T03:46:25.517Z,4.32
2022-10-04T03:48:55.334Z,5.20
2022-10-04T03:51:24.918Z,10.32
2022-10-04T03:53:55.781Z,3.70
2022-10-04T03:56:28.402Z,10.70
2022-10-04T03:58:56.203Z,8.50
2022-10-04T04:01:38.833Z,8.80
2022-10-04T04:04:17.812Z,11.02
2022-10-04T04:07:03.853Z,12.48
2022-10-04T04:10:00.024Z,7.55
2022-10-04T04:15:02.762Z,7.97
2022-10-04T04:17:36.934Z,5.75
2022-10-04T04:20:11.937Z,9.82
2022-10-04T04:22:41.019Z,9.02
2022-10-04T04:25:14.727Z,6.35
2022-10-04T04:27:44.236Z,8.55
2022-10-04T04:30:17.019Z,6.53
2022-10-04T04:32:52.764Z,5.43
2022-10-04T04:35:32.727Z,8.15
2022-10-04T04:38:05.298Z,5.18
2022-10-04T04:40:32.897Z,4.28
2022-10-04T04:43:03.099Z,2.55
2022-10-04T04:45:32.828Z,8.80
2022-10-04T04:48:01.446Z,5.85
2022-10-04T04:50:35.787Z,5.22
2022-10-04T04:53:14.689Z,6.50
2022-10-04T04:56:02.912Z,3.35
2022-10-04T04:58:36.078Z,4.40
2022-10-04T05:01:18.732Z,4.07
2022-10-04T05:03:59.605Z,6.05
2022-10-04T05:06:28.746Z,4.20
2022-10-04T05:08:55.658Z,9.02
2022-10-04T05:11:29.392Z,13.57
2022-10-04T05:14:12.710Z,9.10
2022-10-04T05:16:44.337Z,7.97
2022-10-04T05:19:21.723Z,4.18
2022-10-04T05:21:50.878Z,5.78
2022-10-04T05:24:20.982Z,4.10
2022-10-04T05:26:57.049Z,4.72
2022-10-04T05:29:28.209Z,3.88
2022-10-04T05:32:24.157Z,7.28
2022-10-04T05:34:51.393Z,4.28
2022-10-04T05:37:53.462Z,3.30
2022-10-04T05:40:26.178Z,6.68
2022-10-04T05:42:55.304Z,3.75
2022-10-04T05:45:26.139Z,2.45
2022-10-04T05:47:55.863Z,8.00
2022-10-04T05:50:41.309Z,5.00
2022-10-04T05:53:27.148Z,4.10
2022-10-04T05:56:30.374Z,3.10
2022-10-04T05:59:21.658Z,2.88
2022-10-04T06:02:44.247Z,4.80
2022-10-04T06:05:20.382Z,5.40
2022-10-04T06:08:26.207Z,5.82
2022-10-04T06:13:33.252Z,3.85
2022-10-04T06:16:20.547Z,4.60
2022-10-04T06:19:09.117Z,3.08
2022-10-04T06:22:14.266Z,3.95
2022-10-04T06:24:45.556Z,10.75
2022-10-04T06:27:22.482Z,2.50
2022-10-04T06:30:13.987Z,5.03
2022-10-04T06:33:08.081Z,5.00
2022-10-04T06:35:41.029Z,28.57
2022-10-04T06:38:47.169Z,7.28
2022-10-04T06:41:35.365Z,5.20
2022-10-04T06:44:27.543Z,2.17
2022-10-04T06:47:39.077Z,1.85
2022-10-04T06:50:19.791Z,3.50
2022-10-04T06:52:55.710Z,8.95
2022-10-04T06:55:46.416Z,2.50
2022-10-04T06:58:13.242Z,4.18
2022-10-04T07:00:52.371Z,3.75
2022-10-04T07:03:51.434Z,2.28
2022-10-04T07:06:27.842Z,2.33
2022-10-04T07:09:02.439Z,1.55
2022-10-04T07:11:37.805Z,1.52
2022-10-04T07:14:16.235Z,0.73
2022-10-04T07:17:22.399Z,0.98
2022-10-04T07:19:52.245Z,3.95
2022-10-04T07:22:47.677Z,5.03
2022-10-04T07:25:30.741Z,0.30
2022-10-04T07:28:29.237Z,1.55
2022-10-04T07:31:03.831Z,3.53
2022-10-04T07:33:35.748Z,3.67
2022-10-04T07:36:24.346Z,0.95
2022-10-04T07:39:00.305Z,1.17
2022-10-04T07:41:34.028Z,0.88
2022-10-04T07:44:16.188Z,1.02
2022-10-04T07:46:43.054Z,1.10
2022-10-04T07:49:20.894Z,0.90
2022-10-04T07:52:26.697Z,4.90
2022-10-04T07:55:08.560Z,1.95
2022-10-04T07:58:14.296Z,2.50
2022-10-04T08:00:49.633Z,2.05
2022-10-04T08:03:56.645Z,5.18
2022-10-04T08:06:40.070Z,3.70
2022-10-04T08:09:29.942Z,1.15
2022-10-04T08:12:02.886Z,2.00
2022-10-04T08:14:36.340Z,1.90
2022-10-04T08:17:21.835Z,1.55
2022-10-04T08:19:48.743Z,4.45
2022-10-04T08:22:23.996Z,3.20
2022-10-04T08:25:09.694Z,4.00
2022-10-04T08:28:19.559Z,4.05
2022-10-04T08:31:15.997Z,2.60
2022-10-04T08:34:16.612Z,0.88
2022-10-04T08:37:20.845Z,2.08
2022-10-04T08:40:18.559Z,1.13
2022-10-04T08:42:57.376Z,1.27
2022-10-04T08:46:06.253Z,2.85
2022-10-04T08:49:18.101Z,0.85
2022-10-04T08:52:20.036Z,1.05
2022-10-04T08:55:20.207Z,1.80
2022-10-04T08:58:25.726Z,3.50
2022-10-04T09:00:55.954Z,0.80
2022-10-04T09:03:36.897Z,0.95
2022-10-04T09:06:32.038Z,4.03
2022-10-04T09:12:05.838Z,2.83
2022-10-04T09:14:48.596Z,1.83
2022-10-04T09:17:23.088Z,1.85
2022-10-04T09:22:46.873Z,1.33
2022-10-04T09:25:24.873Z,0.47
2022-10-04T09:28:21.185Z,6.43
2022-10-04T09:31:13.133Z,1.40
2022-10-04T09:33:53.050Z,1.20
2022-10-04T09:36:41.621Z,1.00
2022-10-04T09:39:29.051Z,1.25
2022-10-04T09:42:25.926Z,2.40
2022-10-04T09:45:10.976Z,1.20
2022-10-04T09:47:46.067Z,0.40
2022-10-04T09:50:37.365Z,2.17
2022-10-04T09:53:26.182Z,9.00
2022-10-04T09:56:05.201Z,6.78
2022-10-04T09:58:53.396Z,0.98
2022-10-04T10:01:29.658Z,1.17
2022-10-04T10:04:28.516Z,1.73
2022-10-04T10:07:13.990Z,1.13
2022-10-04T10:10:02.205Z,1.27
2022-10-04T10:13:21.535Z,0.32
2022-10-04T10:16:30.378Z,1.17
2022-10-04T10:19:06.155Z,9.52
2022-10-04T10:22:02.266Z,2.28
2022-10-04T10:25:05.526Z,2.60
2022-10-04T10:27:41.694Z,2.55
2022-10-04T10:30:25.810Z,5.20
2022-10-04T10:33:31.355Z,2.85
2022-10-04T10:36:10.608Z,2.25
2022-10-04T10:38:53.522Z,4.57
2022-10-04T10:41:35.844Z,3.70
2022-10-04T10:44:20.634Z,2.90
2022-10-04T10:46:59.439Z,2.10
2022-10-04T10:49:48.419Z,10.23
2022-10-04T10:52:46.289Z,5.72
2022-10-04T10:56:16.871Z,1.77
2022-10-04T10:58:58.642Z,4.40
2022-10-04T11:02:05.891Z,13.65
2022-10-04T11:05:04.237Z,6.95
2022-10-04T11:07:53.544Z,4.93
2022-10-04T11:10:55.318Z,9.60
2022-10-04T11:13:42.474Z,13.07
2022-10-04T11:16:19.702Z,1.13
2022-10-04T11:19:29.435Z,4.90
2022-10-04T11:22:17.314Z,1.73
2022-10-04T11:25:18.321Z,1.30
2022-10-04T11:28:24.374Z,2.83
2022-10-04T11:34:00.130Z,0.63
2022-10-04T11:36:56.491Z,3.70
2022-10-04T11:39:53.908Z,0.50
2022-10-04T11:42:37.730Z,0.68
2022-10-04T11:45:38.522Z,2.30
2022-10-04T11:48:27.943Z,2.47
2022-10-04T11:51:11.161Z,2.15
2022-10-04T11:54:09.694Z,2.28
2022-10-04T11:56:56.577Z,1.98
2022-10-04T11:59:29.508Z,5.15
2022-10-04T12:02:17.182Z,0.85
2022-10-04T12:05:14.999Z,2.28
2022-10-04T12:08:01.614Z,1.85
2022-10-04T12:10:38.887Z,0.80
2022-10-04T12:13:14.866Z,0.50
2022-10-04T12:15:58.370Z,4.40
2022-10-04T12:18:50.062Z,3.25
2022-10-04T12:21:31.544Z,0.85
2022-10-04T12:24:19.702Z,2.20
2022-10-04T12:27:24.486Z,1.40
2022-10-04T12:30:20.959Z,2.53
2022-10-04T12:32:47.737Z,0.40
2022-10-04T12:35:14.693Z,1.58
2022-10-04T12:38:11.952Z,0.52
2022-10-04T12:41:00.305Z,2.63
2022-10-04T12:43:38.580Z,0.85
2022-10-04T12:46:19.245Z,2.13
2022-10-04T12:49:04.808Z,0.80
2022-10-04T12:51:53.033Z,1.60
2022-10-04T12:54:34.945Z,1.75
2022-10-04T12:57:17.004Z,0.77
2022-10-04T13:00:17.808Z,1.33
2022-10-04T13:03:06.149Z,0.45
2022-10-04T13:05:54.676Z,2.40
2022-10-04T13:08:39.573Z,0.35
2022-10-04T13:11:42.308Z,2.03
2022-10-04T13:14:28.345Z,1.10
2022-10-04T13:17:27.124Z,0.63
2022-10-04T13:20:27.177Z,0.70
2022-10-04T13:23:30.863Z,1.53
2022-10-04T13:26:26.602Z,2.08
2022-10-04T13:29:20.449Z,2.83
2022-10-04T13:32:05.389Z,9.63
2022-10-04T13:34:46.725Z,2.80
2022-10-04T13:37:24.858Z,1.38
2022-10-04T13:39:54.423Z,5.55
2022-10-04T13:42:52.512Z,1.45
2022-10-04T13:45:34.954Z,1.45
2022-10-04T13:48:07.199Z,1.88
2022-10-04T13:51:03.614Z,11.93
2022-10-04T13:54:22.365Z,1.48
2022-10-04T13:57:12.359Z,4.53
2022-10-04T14:00:02.806Z,7.40
2022-10-04T14:02:49.885Z,3.03
2022-10-04T14:05:41.406Z,1.13
2022-10-04T14:08:55.466Z,2.85
2022-10-04T14:11:27.991Z,2.75
2022-10-04T14:14:33.326Z,8.23
2022-10-04T14:17:09.029Z,4.85
2022-10-04T14:20:24.133Z,3.42
2022-10-04T14:23:33.964Z,5.45
2022-10-04T14:26:31.198Z,11.80
2022-10-04T14:29:31.973Z,9.38
2022-10-04T14:32:35.730Z,6.82
2022-10-04T14:35:08.375Z,34.80
2022-10-04T14:37:41.015Z,26.10
2022-10-04T14:40:30.015Z,14.23
2022-10-04T14:43:24.600Z,16.30
2022-10-04T14:45:57.418Z,12.02
2022-10-04T14:48:36.151Z,5.82
2022-10-04T14:51:19.651Z,5.82
2022-10-04T14:53:52.790Z,9.35
2022-10-04T14:56:32.650Z,2.53
2022-10-04T14:59:02.778Z,4.22
2022-10-04T15:01:30.210Z,4.40
2022-10-04T15:04:14.049Z,5.57
2022-10-04T15:07:04.144Z,11.95
2022-10-04T15:09:49.837Z,3.72
2022-10-04T15:12:51.924Z,3.50
2022-10-04T15:15:18.988Z,3.08
2022-10-04T15:17:51.904Z,5.07
2022-10-04T15:20:27.403Z,8.57
2022-10-04T15:23:12.922Z,6.78
2022-10-04T15:25:43.974Z,7.43
2022-10-04T15:28:32.055Z,11.70
2022-10-04T15:31:06.433Z,4.85
2022-10-04T15:33:55.755Z,7.10
2022-10-04T15:36:28.703Z,18.52
2022-10-04T15:39:04.973Z,6.90
2022-10-04T15:41:59.440Z,10.77
2022-10-04T15:44:29.465Z,7.07
2022-10-04T15:47:21.989Z,12.18
2022-10-04T15:50:17.427Z,8.80
2022-10-04T15:52:54.430Z,11.23
2022-10-04T15:55:36.332Z,12.30
2022-10-04T15:58:24.303Z,15.00
2022-10-04T16:00:58.627Z,13.40
2022-10-04T16:03:43.859Z,5.00
2022-10-04T16:06:16.695Z,7.05
2022-10-04T16:08:49.626Z,13.50
2022-10-04T16:11:31.519Z,7.15
2022-10-04T16:14:36.848Z,13.43
2022-10-04T16:17:21.739Z,14.13
2022-10-04T16:20:20.103Z,14.05
2022-10-04T16:23:24.290Z,15.25
2022-10-04T16:25:56.829Z,20.45
2022-10-04T16:28:59.265Z,20.20
2022-10-04T16:32:05.182Z,10.23
2022-10-04T16:34:45.489Z,14.32
2022-10-04T16:37:24.369Z,18.50
2022-10-04T16:40:11.895Z,12.60
2022-10-04T16:42:54.732Z,19.80
2022-10-04T16:45:42.041Z,15.23
2022-10-04T16:48:23.949Z,12.82
2022-10-04T16:51:02.664Z,13.93
2022-10-04T16:53:32.751Z,3.08
2022-10-04T16:56:15.447Z,13.52
2022-10-04T16:58:53.264Z,4.60
2022-10-04T17:01:23.076Z,18.17
2022-10-04T17:04:01.947Z,14.38
2022-10-04T17:06:36.026Z,6.57
2022-10-04T17:09:29.393Z,7.13
2022-10-04T17:12:17.120Z,10.13
2022-10-04T17:14:55.675Z,12.90
2022-10-04T17:17:42.014Z,3.95
2022-10-04T17:20:24.241Z,11.73
2022-10-04T17:23:29.094Z,5.72
2022-10-04T17:25:57.275Z,10.32
2022-10-04T17:28:30.758Z,14.15
2022-10-04T17:31:05.716Z,11.63
2022-10-04T17:33:54.342Z,17.88
2022-10-04T17:36:38.707Z,10.00
2022-10-04T17:39:28.172Z,9.63
2022-10-04T17:42:35.408Z,9.25
2022-10-04T17:45:32.784Z,10.13
2022-10-04T17:48:27.376Z,9.32
2022-10-04T17:51:23.104Z,10.18
2022-10-04T17:54:32.809Z,8.27
2022-10-04T17:57:03.222Z,14.35
2022-10-04T17:59:39.467Z,15.18
2022-10-04T18:02:17.340Z,13.60
2022-10-04T18:05:15.601Z,7.00
2022-10-04T18:07:52.166Z,16.45
2022-10-04T18:10:46.651Z,11.57
2022-10-04T18:13:21.835Z,12.05
2022-10-04T18:18:25.027Z,14.55
2022-10-04T18:20:54.992Z,13.30
2022-10-04T18:23:28.399Z,18.35
2022-10-04T18:26:00.147Z,14.10
2022-10-04T18:28:27.760Z,19.70
2022-10-04T18:31:00.538Z,14.10
2022-10-04T18:33:40.071Z,11.27
2022-10-04T18:36:17.218Z,10.85
2022-10-04T18:38:47.386Z,7.75
2022-10-04T18:41:24.470Z,14.57
2022-10-04T18:43:59.399Z,11.07
2022-10-04T18:46:38.866Z,6.88
2022-10-04T18:49:17.144Z,9.18
2022-10-04T18:52:14.208Z,7.50
2022-10-04T18:54:49.658Z,12.90
2022-10-04T18:57:28.698Z,9.88
2022-10-04T19:00:28.126Z,5.32
2022-10-04T19:03:34.042Z,8.88
2022-10-04T19:06:10.242Z,5.97
2022-10-04T19:08:42.766Z,5.45
2022-10-04T19:11:32.095Z,8.35
2022-10-04T19:14:21.703Z,5.75
2022-10-04T19:17:14.066Z,5.32
2022-10-04T19:20:11.423Z,10.15
2022-10-04T19:23:09.288Z,4.93
2022-10-04T19:26:29.955Z,4.68
2022-10-04T19:28:50.852Z,5.47
2022-10-04T19:31:39.024Z,8.32
2022-10-04T19:34:20.851Z,6.95
2022-10-04T19:36:58.714Z,5.63
2022-10-04T19:39:46.621Z,3.47
2022-10-04T19:42:27.356Z,6.03
2022-10-04T19:45:12.626Z,6.43
2022-10-04T19:47:44.822Z,7.80
2022-10-04T19:50:25.041Z,5.18
2022-10-04T19:53:07.702Z,11.23
2022-10-04T19:55:57.337Z,5.78
2022-10-04T19:58:47.252Z,8.55
2022-10-04T20:01:21.374Z,4.28
2022-10-04T20:04:08.873Z,9.07
2022-10-04T20:06:38.443Z,3.90
2022-10-04T20:09:25.751Z,5.60
2022-10-04T20:11:53.603Z,4.60
2022-10-04T20:14:23.517Z,10.80
2022-10-04T20:17:02.502Z,4.40
2022-10-04T20:19:29.441Z,6.90
2022-10-04T20:22:18.692Z,6.07
2022-10-04T20:24:45.534Z,12.38
2022-10-04T20:27:28.663Z,7.43
2022-10-04T20:29:57.138Z,7.40
2022-10-04T20:32:26.773Z,8.05
2022-10-04T20:34:55.507Z,7.93
2022-10-04T20:37:42.633Z,4.90
2022-10-04T20:40:11.117Z,6.40
2022-10-04T20:42:39.166Z,5.20
2022-10-04T20:45:08.874Z,5.50
2022-10-04T20:47:49.898Z,6.70
2022-10-04T20:50:21.153Z,6.20
2022-10-04T20:52:53.617Z,3.90
2022-10-04T20:55:25.336Z,7.63
2022-10-04T20:57:52.397Z,4.88
2022-10-04T21:00:22.038Z,5.97
2022-10-04T21:02:49.548Z,10.02
2022-10-04T21:05:25.342Z,5.90
2022-10-04T21:08:15.642Z,7.40
2022-10-04T21:11:08.694Z,4.85
2022-10-04T21:14:02.080Z,5.20
2022-10-04T21:16:46.095Z,12.30
2022-10-04T21:19:43.193Z,13.88
2022-10-04T21:22:31.102Z,13.27
2022-10-04T21:25:04.204Z,18.85
2022-10-04T21:27:36.693Z,9.85
2022-10-04T21:30:15.887Z,8.63
2022-10-04T21:32:43.479Z,8.07
2022-10-04T21:35:11.728Z,4.90
2022-10-04T21:37:38.764Z,7.57
2022-10-04T21:40:06.933Z,2.92
2022-10-04T21:42:33.980Z,4.05
2022-10-04T21:45:01.041Z,4.70
2022-10-04T21:47:27.997Z,3.45
2022-10-04T21:49:55.274Z,4.35
2022-10-04T21:52:22.261Z,5.47
2022-10-04T21:54:49.187Z,5.22
2022-10-04T21:57:16.225Z,4.95
2022-10-04T21:59:43.095Z,4.15
2022-10-04T22:02:10.091Z,3.38
2022-10-04T22:04:38.360Z,4.88
2022-10-04T22:07:05.409Z,6.30
2022-10-04T22:09:34.013Z,3.72
2022-10-04T22:12:00.979Z,6.35
2022-10-04T22:14:27.857Z,7.38
2022-10-04T22:16:54.791Z,6.95
2022-10-04T22:19:21.796Z,3.97
2022-10-04T22:21:48.714Z,6.75
2022-10-04T22:24:18.678Z,6.30
2022-10-04T22:26:46.291Z,8.13
2022-10-04T22:29:16.359Z,8.70
2022-10-04T22:31:49.648Z,7.60
2022-10-04T22:34:19.376Z,8.38
2022-10-04T22:36:48.414Z,8.88
2022-10-04T22:39:18.175Z,9.90
2022-10-04T22:41:56.127Z,7.82
2022-10-04T22:44:27.766Z,12.68
2022-10-04T22:46:57.680Z,20.83
2022-10-04T22:49:31.805Z,24.00
2022-10-04T22:52:01.918Z,27.40
2022-10-04T22:54:32.527Z,32.47
2022-10-04T22:57:00.152Z,31.40
2022-10-04T22:59:40.231Z,38.28
2022-10-04T23:02:13.592Z,38.45
2022-10-04T23:04:44.089Z,33.28
2022-10-04T23:07:11.090Z,38.80
2022-10-04T23:09:37.955Z,41.15
2022-10-04T23:12:07.557Z,53.72
2022-10-04T23:14:39.443Z,49.22
2022-10-04T23:17:16.771Z,32.88
2022-10-04T23:19:43.978Z,27.77
2022-10-04T23:22:17.223Z,20.77
2022-10-04T23:24:44.507Z,19.58
2022-10-04T23:27:16.307Z,23.75
2022-10-04T23:29:45.640Z,19.67
2022-10-04T23:32:15.802Z,20.75
2022-10-04T23:34:45.959Z,19.88
2022-10-04T23:37:20.377Z,37.97
2022-10-04T23:39:47.337Z,30.90
2022-10-04T23:42:34.406Z,67.05
2022-10-04T23:45:02.214Z,76.57
2022-10-04T23:47:37.121Z,75.28
2022-10-04T23:50:18.553Z,92.85
2022-10-04T23:52:45.717Z,93.53
2022-10-04T23:55:22.348Z,79.65
2022-10-04T23:57:49.956Z,86.68
